createdAt,value
2023-01-10T00:01:39.998Z,7.40
2023-01-10T00:04:07.156Z,7.40
2023-01-10T00:06:34.354Z,7.40
2023-01-10T00:09:01.522Z,7.40
2023-01-10T00:11:47.249Z,7.40
2023-01-10T00:14:14.403Z,7.40
2023-01-10T00:19:23.931Z,7.40
2023-01-10T00:21:51.286Z,7.40
2023-01-10T00:28:21.621Z,7.40
2023-01-10T00:31:01.787Z,7.30
2023-01-10T00:33:32.125Z,7.30
2023-01-10T00:36:00.983Z,7.30
2023-01-10T00:38:28.689Z,7.30
2023-01-10T00:40:55.799Z,7.30
2023-01-10T00:43:41.579Z,7.30
2023-01-10T00:46:09.589Z,7.30
2023-01-10T00:48:37.323Z,7.30
2023-01-10T00:51:05.568Z,7.30
2023-01-10T00:53:32.858Z,7.30
2023-01-10T00:56:00.111Z,7.30
2023-01-10T00:58:27.391Z,7.30
2023-01-10T01:00:54.585Z,7.30
2023-01-10T01:03:23.536Z,7.30
2023-01-10T01:05:51.127Z,7.30
2023-01-10T01:08:19.446Z,7.30
2023-01-10T01:10:47.130Z,7.30
2023-01-10T01:13:22.344Z,7.30
2023-01-10T01:15:50.510Z,7.30
2023-01-10T01:18:21.088Z,7.30
2023-01-10T01:20:52.972Z,7.30
2023-01-10T01:23:24.283Z,7.30
2023-01-10T01:25:53.484Z,7.30
2023-01-10T01:28:22.259Z,7.30
2023-01-10T01:30:50.231Z,7.30
2023-01-10T01:33:18.233Z,7.30
2023-01-10T01:35:47.824Z,7.30
2023-01-10T01:38:15.733Z,7.30
2023-01-10T01:40:43.350Z,7.30
2023-01-10T01:43:25.994Z,7.30
2023-01-10T01:45:54.424Z,7.30
2023-01-10T01:48:29.059Z,7.30
2023-01-10T01:51:13.791Z,7.30
2023-01-10T01:53:49.605Z,7.30
2023-01-10T01:56:39.817Z,7.30
2023-01-10T01:59:16.277Z,7.30
2023-01-10T02:01:46.877Z,7.30
2023-01-10T02:04:27.401Z,7.30
2023-01-10T02:06:57.366Z,7.30
2023-01-10T02:09:40.228Z,7.30
2023-01-10T02:12:08.290Z,7.30
2023-01-10T02:14:37.408Z,7.30
2023-01-10T02:17:05.702Z,7.30
2023-01-10T02:19:50.513Z,7.30
2023-01-10T02:22:39.907Z,7.30
2023-01-10T02:25:35.331Z,7.30
2023-01-10T02:28:02.370Z,7.30
2023-01-10T02:31:07.248Z,7.30
2023-01-10T02:34:05.610Z,7.30
2023-01-10T02:36:42.702Z,7.30
2023-01-10T02:39:25.411Z,7.30
2023-01-10T02:42:00.598Z,7.30
2023-01-10T02:44:43.502Z,7.20
2023-01-10T02:47:10.910Z,7.30
2023-01-10T02:49:49.194Z,7.30
2023-01-10T02:52:30.512Z,7.20
2023-01-10T02:55:02.493Z,7.20
2023-01-10T02:58:19.779Z,7.20
2023-01-10T03:00:52.224Z,7.20
2023-01-10T03:03:36.607Z,7.20
2023-01-10T03:06:19.090Z,7.20
2023-01-10T03:09:16.847Z,7.20
2023-01-10T03:11:46.944Z,7.20
2023-01-10T03:14:27.227Z,7.20
2023-01-10T03:16:59.347Z,7.20
2023-01-10T03:19:32.325Z,7.20
2023-01-10T03:22:02.636Z,7.20
2023-01-10T03:24:36.425Z,7.20
2023-01-10T03:27:28.332Z,7.20
2023-01-10T03:30:05.848Z,7.20
2023-01-10T03:32:34.072Z,7.20
2023-01-10T03:35:03.110Z,7.20
2023-01-10T03:37:57.956Z,7.20
2023-01-10T03:40:57.447Z,7.20
2023-01-10T03:44:12.430Z,7.20
2023-01-10T03:46:46.814Z,7.10
2023-01-10T03:49:15.560Z,7.10
2023-01-10T03:51:44.370Z,7.20
2023-01-10T03:54:12.581Z,7.10
2023-01-10T03:56:51.223Z,7.20
2023-01-10T03:59:22.110Z,7.10
2023-01-10T04:01:49.448Z,7.10
2023-01-10T04:04:16.789Z,7.10
2023-01-10T04:06:44.234Z,7.20
2023-01-10T04:09:12.149Z,7.20
2023-01-10T04:11:39.457Z,7.10
2023-01-10T04:14:06.741Z,7.10
2023-01-10T04:16:34.040Z,7.10
2023-01-10T04:19:01.291Z,7.10
2023-01-10T04:21:28.622Z,7.10
2023-01-10T04:23:55.718Z,7.10
2023-01-10T04:26:22.908Z,7.10
2023-01-10T04:28:50.123Z,7.10
2023-01-10T04:31:17.334Z,7.10
2023-01-10T04:33:44.492Z,7.00
2023-01-10T04:36:11.826Z,7.00
2023-01-10T04:38:39.103Z,7.00
2023-01-10T04:41:06.252Z,7.00
2023-01-10T04:43:33.441Z,7.00
2023-01-10T04:46:00.699Z,7.00
2023-01-10T04:48:27.994Z,6.90
2023-01-10T04:50:55.723Z,7.00
2023-01-10T04:53:23.208Z,6.90
2023-01-10T04:55:50.689Z,6.90
2023-01-10T04:58:18.447Z,6.80
2023-01-10T05:00:45.871Z,6.80
2023-01-10T05:03:13.169Z,6.80
2023-01-10T05:05:40.425Z,6.70
2023-01-10T05:08:07.592Z,6.70
2023-01-10T05:10:34.886Z,6.70
2023-01-10T05:13:02.156Z,6.60
2023-01-10T05:15:29.275Z,6.60
2023-01-10T05:18:00.990Z,6.60
2023-01-10T05:20:28.270Z,6.60
2023-01-10T05:22:55.551Z,6.60
2023-01-10T05:25:22.603Z,6.60
2023-01-10T05:27:49.724Z,6.60
2023-01-10T05:30:17.135Z,6.60
2023-01-10T05:32:44.378Z,6.60
2023-01-10T05:35:11.761Z,6.60
2023-01-10T05:37:39.426Z,6.60
2023-01-10T05:40:07.625Z,6.60
2023-01-10T05:42:34.779Z,6.50
2023-01-10T05:45:02.454Z,6.50
2023-01-10T05:47:30.486Z,6.50
2023-01-10T05:49:57.551Z,6.50
2023-01-10T05:52:24.809Z,6.50
2023-01-10T05:54:51.931Z,6.50
2023-01-10T05:57:19.524Z,6.50
2023-01-10T05:59:46.834Z,6.40
2023-01-10T06:02:16.931Z,6.40
2023-01-10T06:04:44.095Z,6.40
2023-01-10T06:07:11.649Z,6.40
2023-01-10T06:09:38.819Z,6.40
2023-01-10T06:12:06.311Z,6.40
2023-01-10T06:14:33.378Z,6.40
2023-01-10T06:17:00.576Z,6.40
2023-01-10T06:19:27.891Z,6.40
2023-01-10T06:21:55.154Z,6.40
2023-01-10T06:24:22.358Z,6.40
2023-01-10T06:26:49.482Z,6.40
2023-01-10T06:29:16.671Z,6.40
2023-01-10T06:31:43.921Z,6.40
2023-01-10T06:34:11.211Z,6.40
2023-01-10T06:36:39.216Z,6.50
2023-01-10T06:39:06.565Z,6.50
2023-01-10T06:41:33.744Z,6.50
2023-01-10T06:44:00.841Z,6.50
2023-01-10T06:46:30.804Z,6.50
2023-01-10T06:48:58.567Z,6.50
2023-01-10T06:51:28.857Z,6.50
2023-01-10T06:53:55.984Z,6.50
2023-01-10T06:56:23.354Z,6.50
2023-01-10T06:58:50.889Z,6.50
2023-01-10T07:01:20.699Z,6.50
2023-01-10T07:03:48.654Z,6.50
2023-01-10T07:06:16.577Z,6.50
2023-01-10T07:08:46.441Z,6.50
2023-01-10T07:11:16.699Z,6.50
2023-01-10T07:13:44.076Z,6.50
2023-01-10T07:16:14.175Z,6.50
2023-01-10T07:18:43.331Z,6.50
2023-01-10T07:21:11.194Z,6.50
2023-01-10T07:23:39.087Z,6.50
2023-01-10T07:26:08.970Z,6.50
2023-01-10T07:28:36.299Z,6.50
2023-01-10T07:31:05.967Z,6.40
2023-01-10T07:33:33.389Z,6.40
2023-01-10T07:36:02.309Z,6.40
2023-01-10T07:38:30.075Z,6.40
2023-01-10T07:40:57.794Z,6.40
2023-01-10T07:43:25.022Z,6.40
2023-01-10T07:45:52.437Z,6.30
2023-01-10T07:48:19.667Z,6.30
2023-01-10T07:50:46.926Z,6.30
2023-01-10T07:53:14.265Z,6.30
2023-01-10T07:55:42.079Z,6.30
2023-01-10T07:58:09.361Z,6.20
2023-01-10T08:00:36.849Z,6.20
2023-01-10T08:03:06.514Z,6.20
2023-01-10T08:05:34.315Z,6.20
2023-01-10T08:08:12.002Z,6.20
2023-01-10T08:10:41.192Z,6.20
2023-01-10T08:13:18.416Z,6.20
2023-01-10T08:15:47.548Z,6.20
2023-01-10T08:18:14.991Z,6.20
2023-01-10T08:20:42.434Z,6.20
2023-01-10T08:23:09.673Z,6.20
2023-01-10T08:25:39.399Z,6.10
2023-01-10T08:28:06.643Z,6.10
2023-01-10T08:30:33.867Z,6.10
2023-01-10T08:33:04.074Z,6.10
2023-01-10T08:35:31.630Z,6.20
2023-01-10T08:38:00.381Z,6.20
2023-01-10T08:40:27.835Z,6.20
2023-01-10T08:42:59.800Z,6.20
2023-01-10T08:45:27.164Z,6.20
2023-01-10T08:47:54.564Z,6.20
2023-01-10T08:50:22.246Z,6.20
2023-01-10T08:52:51.462Z,6.20
2023-01-10T08:55:19.500Z,6.20
2023-01-10T08:57:46.790Z,6.30
2023-01-10T09:00:14.586Z,6.30
2023-01-10T09:02:42.462Z,6.30
2023-01-10T09:05:22.284Z,6.30
2023-01-10T09:07:54.499Z,6.30
2023-01-10T09:10:21.905Z,6.30
2023-01-10T09:13:00.053Z,6.40
2023-01-10T09:15:33.316Z,6.40
2023-01-10T09:18:05.039Z,6.40
2023-01-10T09:20:35.068Z,6.40
2023-01-10T09:23:11.106Z,6.50
2023-01-10T09:25:38.890Z,6.50
2023-01-10T09:28:06.814Z,6.50
2023-01-10T09:30:34.656Z,6.50
2023-01-10T09:33:02.629Z,6.50
2023-01-10T09:35:31.918Z,6.50
2023-01-10T09:38:01.773Z,6.50
2023-01-10T09:40:48.430Z,6.50
2023-01-10T09:43:24.607Z,6.60
2023-01-10T09:46:09.958Z,6.70
2023-01-10T09:48:54.709Z,6.70
2023-01-10T09:51:43.864Z,6.70
2023-01-10T09:54:20.283Z,6.70
2023-01-10T09:56:51.376Z,6.80
2023-01-10T09:59:23.761Z,6.80
2023-01-10T10:02:00.919Z,6.90
2023-01-10T10:04:41.912Z,6.90
2023-01-10T10:07:14.696Z,6.90
2023-01-10T10:09:43.388Z,7.00
2023-01-10T10:12:46.301Z,7.00
2023-01-10T10:15:49.878Z,7.00
2023-01-10T10:18:46.254Z,7.10
2023-01-10T10:21:25.266Z,7.10
2023-01-10T10:24:18.660Z,7.10
2023-01-10T10:27:19.861Z,7.10
2023-01-10T10:30:05.944Z,7.10
2023-01-10T10:33:00.478Z,7.10
2023-01-10T10:35:37.357Z,7.20
2023-01-10T10:38:19.153Z,7.10
2023-01-10T10:40:48.308Z,7.20
2023-01-10T10:43:23.089Z,7.20
2023-01-10T10:45:59.235Z,7.20
2023-01-10T10:48:59.120Z,7.20
2023-01-10T10:51:48.738Z,7.20
2023-01-10T10:54:16.734Z,7.20
2023-01-10T10:56:45.206Z,7.20
2023-01-10T10:59:19.222Z,7.20
2023-01-10T11:01:49.965Z,7.20
2023-01-10T11:04:23.351Z,7.20
2023-01-10T11:06:51.123Z,7.30
2023-01-10T11:09:25.765Z,7.30
2023-01-10T11:11:55.456Z,7.30
2023-01-10T11:14:50.937Z,7.30
2023-01-10T11:17:30.939Z,7.40
2023-01-10T11:20:01.154Z,7.40
2023-01-10T11:22:40.947Z,7.40
2023-01-10T11:25:18.996Z,7.40
2023-01-10T11:27:58.908Z,7.40
2023-01-10T11:30:32.330Z,7.40
2023-01-10T11:33:06.212Z,7.40
2023-01-10T11:35:37.461Z,7.40
2023-01-10T11:38:07.928Z,7.40
2023-01-10T11:40:39.243Z,7.40
2023-01-10T11:43:34.807Z,7.40
2023-01-10T11:46:17.710Z,7.40
2023-01-10T11:49:06.085Z,7.40
2023-01-10T11:51:38.615Z,7.40
2023-01-10T11:54:11.341Z,7.40
2023-01-10T11:56:43.838Z,7.40
2023-01-10T11:59:17.261Z,7.40
2023-01-10T12:01:56.586Z,7.30
2023-01-10T12:04:26.604Z,7.30
2023-01-10T12:06:59.059Z,7.30
2023-01-10T12:09:41.155Z,7.30
2023-01-10T12:12:25.730Z,7.30
2023-01-10T12:14:54.988Z,7.30
2023-01-10T12:17:22.222Z,7.30
2023-01-10T12:19:53.427Z,7.30
2023-01-10T12:22:27.010Z,7.30
2023-01-10T12:24:57.203Z,7.30
2023-01-10T12:27:26.045Z,7.30
2023-01-10T12:30:13.216Z,7.40
2023-01-10T12:32:48.259Z,7.30
2023-01-10T12:35:34.614Z,7.30
2023-01-10T12:38:54.343Z,7.30
2023-01-10T12:42:05.497Z,7.30
2023-01-10T12:44:41.833Z,7.30
2023-01-10T12:47:25.492Z,7.30
2023-01-10T12:50:02.024Z,7.30
2023-01-10T12:53:06.048Z,7.40
2023-01-10T12:55:45.165Z,7.30
2023-01-10T12:58:22.223Z,7.30
2023-01-10T13:00:55.531Z,7.30
2023-01-10T13:03:29.026Z,7.30
2023-01-10T13:05:58.944Z,7.30
2023-01-10T13:08:30.711Z,7.40
2023-01-10T13:10:59.531Z,7.40
2023-01-10T13:13:39.709Z,7.40
2023-01-10T13:16:25.496Z,7.40
2023-01-10T13:19:10.905Z,7.40
2023-01-10T13:21:40.530Z,7.30
2023-01-10T13:24:19.798Z,7.40
2023-01-10T13:26:47.176Z,7.40
2023-01-10T13:29:19.992Z,7.40
2023-01-10T13:31:49.079Z,7.40
2023-01-10T13:34:20.440Z,7.40
2023-01-10T13:37:01.143Z,7.40
2023-01-10T13:39:33.491Z,7.40
2023-01-10T13:42:19.204Z,7.50
2023-01-10T13:45:04.435Z,7.50
2023-01-10T13:47:40.915Z,7.50
2023-01-10T13:50:26.563Z,7.50
2023-01-10T13:53:19.648Z,7.50
2023-01-10T13:55:50.270Z,7.50
2023-01-10T13:58:17.416Z,7.50
2023-01-10T14:01:09.564Z,7.50
2023-01-10T14:03:51.771Z,7.50
2023-01-10T14:06:28.306Z,7.50
2023-01-10T14:09:14.165Z,7.50
2023-01-10T14:11:44.319Z,7.50
2023-01-10T14:14:21.209Z,7.50
2023-01-10T14:16:52.419Z,7.50
2023-01-10T14:19:28.385Z,7.50
2023-01-10T14:21:58.538Z,7.50
2023-01-10T14:24:39.380Z,7.60
2023-01-10T14:27:12.773Z,7.50
2023-01-10T14:29:46.058Z,7.50
2023-01-10T14:32:24.644Z,7.50
2023-01-10T14:34:52.321Z,7.50
2023-01-10T14:37:38.894Z,7.50
2023-01-10T14:40:38.481Z,7.50
2023-01-10T14:43:10.525Z,7.50
2023-01-10T14:45:50.020Z,7.50
2023-01-10T14:48:33.605Z,7.50
2023-01-10T14:51:21.368Z,7.50
2023-01-10T14:54:03.716Z,7.50
2023-01-10T14:56:39.800Z,7.50
2023-01-10T14:59:29.832Z,7.50
2023-01-10T15:02:02.932Z,7.50
2023-01-10T15:04:35.490Z,7.50
2023-01-10T15:07:14.303Z,7.50
2023-01-10T15:09:49.657Z,7.40
2023-01-10T15:12:18.641Z,7.40
2023-01-10T15:14:47.502Z,7.40
2023-01-10T15:17:20.645Z,7.40
2023-01-10T15:19:52.710Z,7.40
2023-01-10T15:22:32.454Z,7.40
2023-01-10T15:25:08.947Z,7.40
2023-01-10T15:27:37.651Z,7.40
2023-01-10T15:30:09.384Z,7.40
2023-01-10T15:32:39.694Z,7.40
2023-01-10T15:35:12.008Z,7.40
2023-01-10T15:37:41.276Z,7.40
2023-01-10T15:40:24.550Z,7.40
2023-01-10T15:42:52.373Z,7.40
2023-01-10T15:45:37.928Z,7.40
2023-01-10T15:48:05.440Z,7.40
2023-01-10T15:50:53.715Z,7.40
2023-01-10T15:53:40.911Z,7.40
2023-01-10T15:56:19.337Z,7.30
2023-01-10T15:58:46.826Z,7.30
2023-01-10T16:01:18.981Z,7.30
2023-01-10T16:03:49.967Z,7.40
2023-01-10T16:06:24.610Z,7.30
2023-01-10T16:08:54.965Z,7.30
2023-01-10T16:12:10.279Z,7.30
2023-01-10T16:14:38.199Z,7.30
2023-01-10T16:17:06.133Z,7.30
2023-01-10T16:19:35.909Z,7.30
2023-01-10T16:22:03.772Z,7.30
2023-01-10T16:24:33.922Z,7.30
2023-01-10T16:27:06.112Z,7.30
2023-01-10T16:29:34.488Z,7.20
2023-01-10T16:32:01.731Z,7.20
2023-01-10T16:34:28.918Z,7.20
2023-01-10T16:36:56.256Z,7.10
2023-01-10T16:39:24.167Z,7.10
2023-01-10T16:42:09.780Z,7.10
2023-01-10T16:44:37.439Z,7.00
2023-01-10T16:47:07.144Z,7.00
2023-01-10T16:49:34.825Z,7.00
2023-01-10T16:52:03.334Z,7.00
2023-01-10T16:54:31.363Z,7.00
2023-01-10T16:56:58.587Z,7.00
2023-01-10T16:59:25.776Z,7.00
2023-01-10T17:02:00.356Z,6.90
2023-01-10T17:04:35.742Z,6.90
2023-01-10T17:07:05.740Z,6.90
2023-01-10T17:09:33.016Z,6.90
2023-01-10T17:12:05.872Z,6.90
2023-01-10T17:14:37.814Z,6.90
2023-01-10T17:17:05.303Z,6.90
2023-01-10T17:19:32.688Z,6.80
2023-01-10T17:22:00.593Z,6.80
2023-01-10T17:24:29.885Z,6.80
2023-01-10T17:26:57.334Z,6.70
2023-01-10T17:29:24.387Z,6.70
2023-01-10T17:31:51.524Z,6.70
2023-01-10T17:34:19.263Z,6.70
2023-01-10T17:36:46.334Z,6.70
2023-01-10T17:39:13.674Z,6.60
2023-01-10T17:41:41.079Z,6.60
2023-01-10T17:44:08.268Z,6.60
2023-01-10T17:46:35.401Z,6.60
2023-01-10T17:49:03.178Z,6.50
2023-01-10T17:51:30.394Z,6.50
2023-01-10T17:53:58.013Z,6.50
2023-01-10T17:56:25.556Z,6.50
2023-01-10T17:58:53.913Z,6.50
2023-01-10T18:01:25.434Z,6.50
2023-01-10T18:03:53.650Z,6.50
2023-01-10T18:06:25.254Z,6.40
2023-01-10T18:08:53.934Z,6.40
2023-01-10T18:11:23.163Z,6.40
2023-01-10T18:13:50.375Z,6.40
2023-01-10T18:16:17.693Z,6.40
2023-01-10T18:18:45.098Z,6.40
2023-01-10T18:21:17.979Z,6.40
2023-01-10T18:23:47.177Z,6.40
2023-01-10T18:26:14.964Z,6.40
2023-01-10T18:28:44.149Z,6.40
2023-01-10T18:31:16.491Z,6.30
2023-01-10T18:33:44.970Z,6.30
2023-01-10T18:36:17.599Z,6.30
2023-01-10T18:38:46.259Z,6.30
2023-01-10T18:41:14.489Z,6.30
2023-01-10T18:43:42.290Z,6.30
2023-01-10T18:46:19.149Z,6.30
2023-01-10T18:48:47.362Z,6.30
2023-01-10T18:51:14.936Z,6.30
2023-01-10T18:53:42.967Z,6.30
2023-01-10T18:56:11.172Z,6.30
2023-01-10T18:58:41.042Z,6.30
2023-01-10T19:01:11.285Z,6.20
2023-01-10T19:03:41.531Z,6.20
2023-01-10T19:06:14.717Z,6.30
2023-01-10T19:08:43.284Z,6.30
2023-01-10T19:11:14.755Z,6.30
2023-01-10T19:13:43.616Z,6.30
2023-01-10T19:16:22.459Z,6.30
2023-01-10T19:19:02.531Z,6.30
2023-01-10T19:21:32.822Z,6.30
2023-01-10T19:24:08.808Z,6.30
2023-01-10T19:26:36.203Z,6.30
2023-01-10T19:29:04.618Z,6.30
2023-01-10T19:31:32.055Z,6.30
2023-01-10T19:34:00.343Z,6.30
2023-01-10T19:36:28.861Z,6.30
2023-01-10T19:38:59.823Z,6.30
2023-01-10T19:41:28.836Z,6.30
2023-01-10T19:44:02.059Z,6.30
2023-01-10T19:46:33.035Z,6.30
2023-01-10T19:49:08.509Z,6.30
2023-01-10T19:51:40.174Z,6.30
2023-01-10T19:54:09.204Z,6.30
2023-01-10T19:56:36.537Z,6.30
2023-01-10T19:59:03.969Z,6.30
2023-01-10T20:01:32.402Z,6.30
2023-01-10T20:04:02.143Z,6.30
2023-01-10T20:06:32.176Z,6.30
2023-01-10T20:08:59.588Z,6.30
2023-01-10T20:11:37.087Z,6.30
2023-01-10T20:14:08.753Z,6.30
2023-01-10T20:16:36.313Z,6.30
2023-01-10T20:19:05.884Z,6.30
2023-01-10T20:21:33.045Z,6.30
2023-01-10T20:24:00.235Z,6.30
2023-01-10T20:26:27.584Z,6.30
2023-01-10T20:28:56.552Z,6.30
2023-01-10T20:31:27.581Z,6.30
2023-01-10T20:33:54.907Z,6.30
2023-01-10T20:36:24.350Z,6.30
2023-01-10T20:38:52.485Z,6.30
2023-01-10T20:41:27.306Z,6.40
2023-01-10T20:43:56.181Z,6.30
2023-01-10T20:46:32.260Z,6.40
2023-01-10T20:49:02.608Z,6.40
2023-01-10T20:51:33.397Z,6.40
2023-01-10T20:54:01.087Z,6.40
2023-01-10T20:56:30.609Z,6.40
2023-01-10T20:58:58.844Z,6.40
2023-01-10T21:01:34.607Z,6.40
2023-01-10T21:04:04.383Z,6.40
2023-01-10T21:06:32.233Z,6.40
2023-01-10T21:09:00.723Z,6.40
2023-01-10T21:11:28.170Z,6.40
2023-01-10T21:13:55.593Z,6.40
2023-01-10T21:16:23.336Z,6.40
2023-01-10T21:18:51.547Z,6.40
2023-01-10T21:21:21.001Z,6.40
2023-01-10T21:23:48.147Z,6.40
2023-01-10T21:26:16.358Z,6.40
2023-01-10T21:28:47.660Z,6.40
2023-01-10T21:31:17.063Z,6.40
2023-01-10T21:33:44.593Z,6.40
2023-01-10T21:36:13.796Z,6.40
2023-01-10T21:38:41.306Z,6.40
2023-01-10T21:41:39.761Z,6.40
2023-01-10T21:44:08.134Z,6.40
2023-01-10T21:46:35.540Z,6.30
2023-01-10T21:49:04.280Z,6.30
2023-01-10T21:51:31.584Z,6.30
2023-01-10T21:53:59.368Z,6.30
2023-01-10T21:56:26.588Z,6.30
2023-01-10T21:58:53.803Z,6.30
2023-01-10T22:01:21.007Z,6.30
2023-01-10T22:03:48.257Z,6.20
2023-01-10T22:06:16.143Z,6.20
2023-01-10T22:08:43.246Z,6.20
2023-01-10T22:11:11.162Z,6.20
2023-01-10T22:13:39.191Z,6.20
2023-01-10T22:16:07.275Z,6.20
2023-01-10T22:18:34.514Z,6.20
2023-01-10T22:21:01.886Z,6.20
2023-01-10T22:23:30.593Z,6.20
2023-01-10T22:26:16.323Z,6.20
2023-01-10T22:28:43.628Z,6.20
2023-01-10T22:31:13.843Z,6.20
2023-01-10T22:33:41.540Z,6.20
2023-01-10T22:36:19.588Z,6.20
2023-01-10T22:38:47.842Z,6.20
2023-01-10T22:41:17.815Z,6.10
2023-01-10T22:43:46.111Z,6.10
2023-01-10T22:46:16.971Z,6.20
2023-01-10T22:48:44.480Z,6.20
2023-01-10T22:51:15.695Z,6.20
2023-01-10T22:53:43.397Z,6.20
2023-01-10T22:56:11.425Z,6.20
2023-01-10T22:58:38.793Z,6.20
2023-01-10T23:03:52.614Z,6.20
2023-01-10T23:06:20.456Z,6.20
2023-01-10T23:08:47.973Z,6.10
2023-01-10T23:11:17.283Z,6.10
2023-01-10T23:13:46.983Z,6.20
2023-01-10T23:16:28.732Z,6.20
2023-01-10T23:18:57.299Z,6.20
2023-01-10T23:21:25.500Z,6.20
2023-01-10T23:23:52.834Z,6.20
2023-01-10T23:26:20.244Z,6.20
2023-01-10T23:28:50.023Z,6.10
2023-01-10T23:31:22.628Z,6.20
2023-01-10T23:33:50.513Z,6.20
2023-01-10T23:36:18.429Z,6.20
2023-01-10T23:38:45.960Z,6.20
2023-01-10T23:41:13.827Z,6.20
2023-01-10T23:43:41.052Z,6.20
2023-01-10T23:46:08.733Z,6.20
2023-01-10T23:48:36.843Z,6.20
2023-01-10T23:51:04.117Z,6.20
2023-01-10T23:53:31.503Z,6.20
2023-01-10T23:55:58.588Z,6.10
2023-01-10T23:58:25.735Z,6.20
